createdAt,value
2023-04-04T00:00:10.885Z,102154.72
2023-04-04T00:02:15.166Z,102152.09
2023-04-04T00:04:19.290Z,102153.78
2023-04-04T00:06:25.183Z,102152.94
2023-04-04T00:08:29.247Z,102153.72
2023-04-04T00:10:33.725Z,102149.25
2023-04-04T00:12:38.787Z,102149.22
2023-04-04T00:14:43.222Z,102146.63
2023-04-04T00:16:47.420Z,102154.59
2023-04-04T00:18:51.475Z,102148.38
2023-04-04T00:20:55.716Z,102145.63
2023-04-04T00:23:01.242Z,102147.44
2023-04-04T00:25:06.100Z,102143.09
2023-04-04T00:27:10.228Z,102135.25
2023-04-04T00:29:14.580Z,102143.09
2023-04-04T00:31:19.138Z,102139.56
2023-04-04T00:33:23.476Z,102136.00
2023-04-04T00:35:29.181Z,102134.19
2023-04-04T00:37:33.416Z,102126.34
2023-04-04T00:39:39.521Z,102127.25
2023-04-04T00:41:43.167Z,102127.34
2023-04-04T00:43:47.215Z,102123.78
2023-04-04T00:45:51.410Z,102123.81
2023-04-04T00:47:57.174Z,102123.22
2023-04-04T00:50:00.903Z,102120.72
2023-04-04T00:52:07.438Z,102111.16
2023-04-04T00:54:11.590Z,102108.88
2023-04-04T00:56:16.771Z,102105.47
2023-04-04T00:58:20.274Z,102116.88
2023-04-04T01:00:24.210Z,102111.56
2023-04-04T01:02:29.378Z,102100.97
2023-04-04T01:04:34.129Z,102106.09
2023-04-04T01:06:38.503Z,102104.25
2023-04-04T01:08:44.571Z,102104.22
2023-04-04T01:10:49.496Z,102112.16
2023-04-04T01:12:56.609Z,102106.88
2023-04-04T01:15:00.872Z,102103.41
2023-04-04T01:17:06.372Z,102105.25
2023-04-04T01:19:15.868Z,102098.25
2023-04-04T01:21:22.269Z,102101.78
2023-04-04T01:23:36.996Z,102092.13
2023-04-04T01:25:44.493Z,102101.72
2023-04-04T01:27:52.391Z,102092.78
2023-04-04T01:29:57.523Z,102093.44
2023-04-04T01:32:10.426Z,102095.03
2023-04-04T01:34:34.245Z,102086.94
2023-04-04T01:36:45.365Z,102092.09
2023-04-04T01:38:56.025Z,102090.22
2023-04-04T01:41:05.515Z,102096.22
2023-04-04T01:43:11.774Z,102090.03
2023-04-04T01:45:20.101Z,102087.50
2023-04-04T01:47:25.186Z,102083.31
2023-04-04T01:49:29.370Z,102078.19
2023-04-04T01:51:34.022Z,102067.69
2023-04-04T01:53:38.346Z,102069.47
2023-04-04T01:55:42.730Z,102069.47
2023-04-04T01:57:48.979Z,102064.22
2023-04-04T01:59:53.148Z,102065.00
2023-04-04T02:01:57.768Z,102063.97
2023-04-04T02:04:02.901Z,102062.91
2023-04-04T02:06:08.279Z,102061.88
2023-04-04T02:08:13.684Z,102067.91
2023-04-04T02:10:25.725Z,102061.66
2023-04-04T02:12:30.304Z,102063.38
2023-04-04T02:14:36.128Z,102065.06
2023-04-04T02:16:40.322Z,102065.91
2023-04-04T02:18:45.011Z,102061.50
2023-04-04T02:20:49.192Z,102063.34
2023-04-04T02:22:55.056Z,102064.28
2023-04-04T02:25:00.572Z,102059.00
2023-04-04T02:27:05.138Z,102054.56
2023-04-04T02:29:10.986Z,102056.28
2023-04-04T02:31:17.943Z,102049.25
2023-04-04T02:33:22.560Z,102048.28
2023-04-04T02:35:28.784Z,102052.63
2023-04-04T02:37:33.160Z,102052.59
2023-04-04T02:39:38.707Z,102049.88
2023-04-04T02:41:43.120Z,102046.28
2023-04-04T02:43:47.020Z,102056.69
2023-04-04T02:45:51.733Z,102047.78
2023-04-04T02:48:04.148Z,102047.66
2023-04-04T02:50:17.611Z,102047.63
2023-04-04T02:52:24.982Z,102049.34
2023-04-04T02:54:29.649Z,102052.94
2023-04-04T02:56:33.985Z,102055.56
2023-04-04T02:58:39.914Z,102045.03
2023-04-04T03:00:47.773Z,102045.91
2023-04-04T03:02:56.532Z,102049.41
2023-04-04T03:05:09.339Z,102052.88
2023-04-04T03:07:14.381Z,102048.44
2023-04-04T03:09:18.763Z,102042.31
2023-04-04T03:11:25.783Z,102045.75
2023-04-04T03:13:31.772Z,102034.31
2023-04-04T03:15:36.367Z,102041.31
2023-04-04T03:17:41.438Z,102031.56
2023-04-04T03:19:45.577Z,102031.50
2023-04-04T03:21:50.914Z,102032.41
2023-04-04T03:23:54.943Z,102022.69
2023-04-04T03:25:59.431Z,102025.38
2023-04-04T03:28:10.236Z,102016.66
2023-04-04T03:30:14.612Z,102021.06
2023-04-04T03:32:18.541Z,102019.38
2023-04-04T03:34:23.582Z,102011.47
2023-04-04T03:36:27.089Z,102022.84
2023-04-04T03:38:32.204Z,102016.59
2023-04-04T03:40:35.764Z,102017.53
2023-04-04T03:42:43.751Z,102020.06
2023-04-04T03:44:49.782Z,102012.16
2023-04-04T03:47:03.716Z,102007.03
2023-04-04T03:49:10.082Z,102004.47
2023-04-04T03:51:13.672Z,101998.44
2023-04-04T03:53:17.383Z,102011.63
2023-04-04T03:55:22.569Z,102009.78
2023-04-04T03:57:27.316Z,102007.22
2023-04-04T03:59:31.298Z,102008.88
2023-04-04T04:01:34.931Z,102007.94
2023-04-04T04:03:39.726Z,102008.69
2023-04-04T04:05:43.362Z,102011.41
2023-04-04T04:07:47.029Z,102011.38
2023-04-04T04:09:50.543Z,102014.84
2023-04-04T04:11:55.507Z,102011.28
2023-04-04T04:13:59.191Z,102014.72
2023-04-04T04:16:02.925Z,102016.56
2023-04-04T04:18:07.356Z,102015.63
2023-04-04T04:20:12.042Z,102005.03
2023-04-04T04:22:20.842Z,102009.34
2023-04-04T04:24:24.621Z,102006.63
2023-04-04T04:26:28.250Z,102017.97
2023-04-04T04:28:34.481Z,102009.22
2023-04-04T04:30:42.972Z,102011.81
2023-04-04T04:32:47.260Z,102006.56
2023-04-04T04:34:51.459Z,102005.75
2023-04-04T04:36:59.563Z,102002.38
2023-04-04T04:39:08.632Z,102005.97
2023-04-04T04:41:15.853Z,102002.44
2023-04-04T04:43:23.725Z,101989.19
2023-04-04T04:45:29.517Z,101996.97
2023-04-04T04:47:43.481Z,101988.06
2023-04-04T04:49:52.393Z,101982.72
2023-04-04T04:52:03.038Z,101975.66
2023-04-04T04:54:07.699Z,101979.06
2023-04-04T04:56:11.867Z,101976.38
2023-04-04T04:58:21.437Z,101973.75
2023-04-04T05:00:29.190Z,101970.31
2023-04-04T05:02:33.015Z,101979.03
2023-04-04T05:04:37.338Z,101979.91
2023-04-04T05:06:42.664Z,101968.41
2023-04-04T05:08:48.717Z,101980.63
2023-04-04T05:11:18.623Z,101981.53
2023-04-04T05:13:22.550Z,101969.28
2023-04-04T05:15:29.398Z,101977.28
2023-04-04T05:17:37.178Z,101972.22
2023-04-04T05:19:44.127Z,101975.00
2023-04-04T05:21:52.670Z,101960.06
2023-04-04T05:24:07.726Z,101967.09
2023-04-04T05:26:14.789Z,101965.34
2023-04-04T05:28:19.199Z,101960.84
2023-04-04T05:30:23.707Z,101957.19
2023-04-04T05:32:48.094Z,101955.28
2023-04-04T05:34:58.964Z,101952.53
2023-04-04T05:37:03.817Z,101964.69
2023-04-04T05:39:09.601Z,101958.47
2023-04-04T05:41:20.205Z,101960.97
2023-04-04T05:43:25.118Z,101966.13
2023-04-04T05:45:40.597Z,101974.75
2023-04-04T05:47:46.233Z,101966.72
2023-04-04T05:49:52.686Z,101969.38
2023-04-04T05:51:57.847Z,101970.28
2023-04-04T05:54:02.549Z,101974.84
2023-04-04T05:56:10.190Z,101978.41
2023-04-04T05:58:15.418Z,101973.13
2023-04-04T06:00:25.158Z,101972.25
2023-04-04T06:02:39.861Z,101967.91
2023-04-04T06:04:46.239Z,101967.03
2023-04-04T06:06:57.087Z,101974.88
2023-04-04T06:09:01.553Z,101976.50
2023-04-04T06:11:06.401Z,101976.47
2023-04-04T06:13:10.495Z,101974.59
2023-04-04T06:15:15.312Z,101984.16
2023-04-04T06:17:20.755Z,101975.53
2023-04-04T06:19:24.625Z,101979.25
2023-04-04T06:21:28.706Z,101978.50
2023-04-04T06:23:34.865Z,101982.91
2023-04-04T06:25:39.213Z,101975.91
2023-04-04T06:27:44.500Z,101982.97
2023-04-04T06:29:49.695Z,101994.31
2023-04-04T06:31:58.323Z,102004.81
2023-04-04T06:34:12.459Z,102001.19
2023-04-04T06:36:29.422Z,102000.25
2023-04-04T06:38:39.451Z,101995.94
2023-04-04T06:40:51.430Z,101985.56
2023-04-04T06:42:58.655Z,102002.25
2023-04-04T06:45:12.189Z,102003.06
2023-04-04T06:47:16.141Z,102007.44
2023-04-04T06:49:20.269Z,101995.03
2023-04-04T06:51:24.878Z,101999.41
2023-04-04T06:53:28.697Z,102002.88
2023-04-04T06:55:34.601Z,101998.34
2023-04-04T06:57:39.120Z,101995.63
2023-04-04T06:59:44.597Z,101994.72
2023-04-04T07:01:49.230Z,101997.31
2023-04-04T07:03:55.430Z,101988.59
2023-04-04T07:05:59.372Z,101993.16
2023-04-04T07:08:03.128Z,101987.34
2023-04-04T07:10:08.010Z,101991.19
2023-04-04T07:12:13.344Z,101998.50
2023-04-04T07:14:17.467Z,101993.34
2023-04-04T07:16:21.737Z,101996.09
2023-04-04T07:18:25.592Z,101990.69
2023-04-04T07:20:29.543Z,101985.38
2023-04-04T07:22:33.192Z,101977.41
2023-04-04T07:24:37.026Z,101982.66
2023-04-04T07:26:41.248Z,101978.13
2023-04-04T07:28:46.697Z,101985.13
2023-04-04T07:30:50.384Z,101986.69
2023-04-04T07:32:59.356Z,101983.78
2023-04-04T07:35:03.169Z,101985.38
2023-04-04T07:37:06.920Z,101974.53
2023-04-04T07:39:11.231Z,101976.06
2023-04-04T07:41:15.140Z,101965.38
2023-04-04T07:43:19.122Z,101960.09
2023-04-04T07:45:24.268Z,101958.16
2023-04-04T07:47:28.462Z,101964.88
2023-04-04T07:49:32.198Z,101954.13
2023-04-04T07:51:36.284Z,101951.22
2023-04-04T07:53:39.913Z,101943.13
2023-04-04T07:55:43.877Z,101939.69
2023-04-04T07:57:47.516Z,101938.94
2023-04-04T07:59:51.246Z,101926.78
2023-04-04T08:01:56.250Z,101937.34
2023-04-04T08:03:59.865Z,101933.59
2023-04-04T08:06:03.302Z,101938.78
2023-04-04T08:08:07.015Z,101937.63
2023-04-04T08:10:11.456Z,101939.00
2023-04-04T08:12:15.221Z,101932.47
2023-04-04T08:14:18.787Z,101931.19
2023-04-04T08:16:22.627Z,101937.09
2023-04-04T08:18:28.071Z,101930.63
2023-04-04T08:20:31.594Z,101929.53
2023-04-04T08:22:35.211Z,101928.41
2023-04-04T08:24:38.761Z,101922.97
2023-04-04T08:26:45.218Z,101914.81
2023-04-04T08:28:52.748Z,101916.34
2023-04-04T08:30:56.467Z,101909.94
2023-04-04T08:33:00.071Z,101926.56
2023-04-04T08:35:06.274Z,101914.19
2023-04-04T08:37:10.822Z,101919.47
2023-04-04T08:39:14.642Z,101926.44
2023-04-04T08:41:18.496Z,101926.28
2023-04-04T08:43:24.921Z,101921.81
2023-04-04T08:45:32.196Z,101920.97
2023-04-04T08:47:37.805Z,101922.41
2023-04-04T08:49:45.291Z,101929.38
2023-04-04T08:51:53.580Z,101934.31
2023-04-04T08:53:57.754Z,101939.34
2023-04-04T08:56:01.957Z,101933.84
2023-04-04T08:58:05.463Z,101931.03
2023-04-04T09:00:10.906Z,101916.78
2023-04-04T09:02:24.946Z,101915.81
2023-04-04T09:04:29.955Z,101921.09
2023-04-04T09:06:33.854Z,101920.19
2023-04-04T09:08:39.198Z,101916.88
2023-04-04T09:10:45.328Z,101905.75
2023-04-04T09:12:49.957Z,101909.50
2023-04-04T09:14:54.793Z,101909.66
2023-04-04T09:16:58.520Z,101908.81
2023-04-04T09:19:02.642Z,101918.44
2023-04-04T09:21:11.435Z,101916.47
2023-04-04T09:23:17.109Z,101912.63
2023-04-04T09:25:24.498Z,101914.13
2023-04-04T09:27:28.379Z,101915.56
2023-04-04T09:29:32.221Z,101913.38
2023-04-04T09:31:36.285Z,101916.41
2023-04-04T09:33:40.387Z,101910.66
2023-04-04T09:35:47.244Z,101910.34
2023-04-04T09:37:52.540Z,101909.28
2023-04-04T09:39:56.790Z,101907.53
2023-04-04T09:42:02.972Z,101905.25
2023-04-04T09:44:07.439Z,101905.50
2023-04-04T09:46:11.928Z,101908.38
2023-04-04T09:48:26.662Z,101905.13
2023-04-04T09:50:30.581Z,101898.88
2023-04-04T09:52:36.138Z,101899.75
2023-04-04T09:54:47.976Z,101903.91
2023-04-04T09:56:53.751Z,101907.22
2023-04-04T09:59:04.112Z,101898.22
2023-04-04T10:01:11.052Z,101892.72
2023-04-04T10:03:16.833Z,101888.16
2023-04-04T10:05:22.170Z,101895.09
2023-04-04T10:07:27.149Z,101906.41
2023-04-04T10:09:31.031Z,101910.00
2023-04-04T10:11:39.223Z,101897.69
2023-04-04T10:13:44.803Z,101896.69
2023-04-04T10:15:50.160Z,101885.94
2023-04-04T10:17:56.819Z,101890.19
2023-04-04T10:20:04.079Z,101884.66
2023-04-04T10:22:07.984Z,101884.41
2023-04-04T10:24:12.327Z,101886.63
2023-04-04T10:26:16.586Z,101888.72
2023-04-04T10:28:21.570Z,101888.91
2023-04-04T10:30:25.083Z,101888.28
2023-04-04T10:32:39.729Z,101887.75
2023-04-04T10:34:51.170Z,101888.97
2023-04-04T10:36:59.995Z,101892.91
2023-04-04T10:39:09.510Z,101901.38
2023-04-04T10:41:15.326Z,101898.44
2023-04-04T10:43:27.030Z,101896.28
2023-04-04T10:45:32.640Z,101886.47
2023-04-04T10:47:39.399Z,101877.47
2023-04-04T10:49:45.149Z,101872.69
2023-04-04T10:51:56.466Z,101871.78
2023-04-04T10:54:01.254Z,101872.63
2023-04-04T10:56:05.169Z,101877.72
2023-04-04T10:58:09.433Z,101871.06
2023-04-04T11:00:18.014Z,101877.00
2023-04-04T11:02:51.605Z,101875.81
2023-04-04T11:05:12.634Z,101872.53
2023-04-04T11:07:18.494Z,101883.16
2023-04-04T11:09:54.025Z,101885.13
2023-04-04T11:12:10.580Z,101866.22
2023-04-04T11:14:14.256Z,101867.25
2023-04-04T11:16:21.606Z,101863.03
2023-04-04T11:18:50.152Z,101862.16
2023-04-04T11:20:56.520Z,101860.41
2023-04-04T11:23:11.214Z,101855.84
2023-04-04T11:25:35.464Z,101862.72
2023-04-04T11:27:39.311Z,101860.69
2023-04-04T11:29:53.752Z,101859.59
2023-04-04T11:31:58.375Z,101859.25
2023-04-04T11:34:06.069Z,101857.16
2023-04-04T11:36:25.430Z,101857.69
2023-04-04T11:38:30.835Z,101851.28
2023-04-04T11:40:41.406Z,101845.34
2023-04-04T11:42:45.373Z,101845.22
2023-04-04T11:45:04.663Z,101832.88
2023-04-04T11:47:12.867Z,101836.38
2023-04-04T11:49:18.691Z,101828.47
2023-04-04T11:51:22.621Z,101819.97
2023-04-04T11:53:26.531Z,101823.75
2023-04-04T11:55:30.789Z,101830.69
2023-04-04T11:57:36.522Z,101823.44
2023-04-04T11:59:42.368Z,101818.78
2023-04-04T12:01:46.993Z,101819.59
2023-04-04T12:03:51.531Z,101821.13
2023-04-04T12:05:56.973Z,101813.00
2023-04-04T12:08:02.635Z,101811.91
2023-04-04T12:10:09.289Z,101801.28
2023-04-04T12:12:14.634Z,101804.84
2023-04-04T12:14:20.038Z,101810.97
2023-04-04T12:16:24.035Z,101805.66
2023-04-04T12:18:28.645Z,101799.41
2023-04-04T12:20:33.368Z,101793.31
2023-04-04T12:22:38.893Z,101787.16
2023-04-04T12:24:42.965Z,101787.31
2023-04-04T12:26:49.362Z,101782.53
2023-04-04T12:28:55.700Z,101772.94
2023-04-04T12:31:05.730Z,101764.38
2023-04-04T12:33:09.851Z,101765.31
2023-04-04T12:35:15.380Z,101765.56
2023-04-04T12:37:20.105Z,101764.81
2023-04-04T12:39:28.678Z,101761.66
2023-04-04T12:41:33.763Z,101757.34
2023-04-04T12:43:44.280Z,101743.06
2023-04-04T12:45:52.355Z,101745.44
2023-04-04T12:47:58.253Z,101738.06
2023-04-04T12:50:02.219Z,101743.47
2023-04-04T12:52:07.850Z,101739.72
2023-04-04T12:54:29.282Z,101733.78
2023-04-04T12:56:33.836Z,101727.44
2023-04-04T12:58:37.730Z,101723.91
2023-04-04T13:00:42.026Z,101722.06
2023-04-04T13:02:47.812Z,101710.06
2023-04-04T13:04:55.821Z,101720.75
2023-04-04T13:07:00.703Z,101724.31
2023-04-04T13:09:04.786Z,101725.19
2023-04-04T13:11:09.891Z,101727.72
2023-04-04T13:13:33.401Z,101720.53
2023-04-04T13:15:50.813Z,101732.81
2023-04-04T13:17:54.737Z,101726.53
2023-04-04T13:19:59.013Z,101732.03
2023-04-04T13:22:04.233Z,101733.28
2023-04-04T13:24:08.058Z,101725.81
2023-04-04T13:26:13.919Z,101722.09
2023-04-04T13:28:18.049Z,101715.91
2023-04-04T13:30:23.297Z,101704.31
2023-04-04T13:32:28.624Z,101704.31
2023-04-04T13:34:34.222Z,101703.25
2023-04-04T13:36:38.050Z,101698.78
2023-04-04T13:38:42.436Z,101688.00
2023-04-04T13:40:47.033Z,101683.56
2023-04-04T13:42:52.926Z,101676.41
2023-04-04T13:44:57.475Z,101667.56
2023-04-04T13:47:02.897Z,101666.44
2023-04-04T13:49:06.741Z,101662.72
2023-04-04T13:51:10.441Z,101658.03
2023-04-04T13:53:14.314Z,101664.13
2023-04-04T13:55:17.965Z,101663.06
2023-04-04T13:57:22.028Z,101657.75
2023-04-04T13:59:27.031Z,101656.88
2023-04-04T14:01:30.992Z,101650.69
2023-04-04T14:03:35.002Z,101664.75
2023-04-04T14:05:38.977Z,101655.19
2023-04-04T14:07:43.313Z,101648.13
2023-04-04T14:09:47.407Z,101655.19
2023-04-04T14:11:50.931Z,101640.03
2023-04-04T14:13:54.589Z,101639.09
2023-04-04T14:16:00.014Z,101636.44
2023-04-04T14:18:03.888Z,101630.22
2023-04-04T14:20:08.713Z,101632.88
2023-04-04T14:22:12.646Z,101626.94
2023-04-04T14:24:16.395Z,101628.91
2023-04-04T14:26:21.102Z,101632.19
2023-04-04T14:28:24.877Z,101623.72
2023-04-04T14:30:29.050Z,101630.47
2023-04-04T14:32:35.097Z,101631.84
2023-04-04T14:34:39.086Z,101636.50
2023-04-04T14:36:43.492Z,101628.72
2023-04-04T14:38:47.964Z,101618.22
2023-04-04T14:40:52.705Z,101625.94
2023-04-04T14:42:56.936Z,101621.97
2023-04-04T14:45:02.692Z,101612.47
2023-04-04T14:47:06.878Z,101605.84
2023-04-04T14:49:12.024Z,101604.31
2023-04-04T14:51:17.075Z,101605.16
2023-04-04T14:53:21.812Z,101610.22
2023-04-04T14:55:26.420Z,101602.03
2023-04-04T14:57:32.139Z,101595.16
2023-04-04T14:59:39.515Z,101597.25
2023-04-04T15:01:43.450Z,101591.53
2023-04-04T15:03:47.950Z,101599.13
2023-04-04T15:05:53.433Z,101588.47
2023-04-04T15:07:57.055Z,101581.25
2023-04-04T15:10:00.936Z,101581.25
2023-04-04T15:12:04.805Z,101579.44
2023-04-04T15:14:08.631Z,101583.59
2023-04-04T15:16:12.487Z,101582.44
2023-04-04T15:18:17.219Z,101577.00
2023-04-04T15:20:21.270Z,101579.44
2023-04-04T15:22:26.574Z,101576.66
2023-04-04T15:24:30.365Z,101577.50
2023-04-04T15:26:34.301Z,101578.28
2023-04-04T15:28:37.896Z,101573.69
2023-04-04T15:30:42.148Z,101579.00
2023-04-04T15:32:46.682Z,101576.25
2023-04-04T15:34:50.825Z,101570.06
2023-04-04T15:36:55.719Z,101567.31
2023-04-04T15:39:01.308Z,101574.34
2023-04-04T15:41:08.966Z,101561.75
2023-04-04T15:43:12.876Z,101558.16
2023-04-04T15:45:17.012Z,101570.41
2023-04-04T15:47:20.647Z,101567.75
2023-04-04T15:49:24.032Z,101564.63
2023-04-04T15:51:27.697Z,101564.19
2023-04-04T15:53:31.590Z,101569.97
2023-04-04T15:55:36.537Z,101570.50
2023-04-04T15:57:40.556Z,101568.22
2023-04-04T15:59:44.076Z,101571.38
2023-04-04T16:01:47.922Z,101570.81
2023-04-04T16:03:51.865Z,101562.38
2023-04-04T16:05:55.703Z,101568.94
2023-04-04T16:07:59.467Z,101569.31
2023-04-04T16:10:03.736Z,101568.75
2023-04-04T16:12:08.924Z,101568.22
2023-04-04T16:14:12.905Z,101577.34
2023-04-04T16:16:16.783Z,101565.28
2023-04-04T16:18:21.327Z,101576.19
2023-04-04T16:20:26.449Z,101571.25
2023-04-04T16:22:29.773Z,101583.22
2023-04-04T16:24:33.481Z,101586.47
2023-04-04T16:26:37.726Z,101586.63
2023-04-04T16:28:46.849Z,101584.25
2023-04-04T16:30:51.367Z,101586.06
2023-04-04T16:32:55.950Z,101587.94
2023-04-04T16:34:59.969Z,101593.38
2023-04-04T16:37:04.567Z,101599.81
2023-04-04T16:39:09.097Z,101586.88
2023-04-04T16:41:13.439Z,101588.00
2023-04-04T16:43:17.628Z,101591.88
2023-04-04T16:45:23.635Z,101589.53
2023-04-04T16:47:28.389Z,101586.28
2023-04-04T16:49:32.934Z,101585.59
2023-04-04T16:51:37.052Z,101581.31
2023-04-04T16:53:41.640Z,101577.03
2023-04-04T16:55:45.883Z,101571.88
2023-04-04T16:57:50.735Z,101570.19
2023-04-04T16:59:55.478Z,101575.50
2023-04-04T17:02:01.549Z,101578.16
2023-04-04T17:04:06.080Z,101573.78
2023-04-04T17:06:10.585Z,101583.38
2023-04-04T17:08:14.668Z,101587.06
2023-04-04T17:10:19.789Z,101584.66
2023-04-04T17:12:23.600Z,101579.53
2023-04-04T17:14:28.016Z,101584.94
2023-04-04T17:16:31.841Z,101585.13
2023-04-04T17:18:37.040Z,101587.09
2023-04-04T17:20:42.987Z,101590.03
2023-04-04T17:22:47.814Z,101582.50
2023-04-04T17:24:52.287Z,101594.31
2023-04-04T17:26:58.696Z,101592.88
2023-04-04T17:29:04.957Z,101579.00
2023-04-04T17:31:10.373Z,101579.28
2023-04-04T17:33:14.966Z,101580.53
2023-04-04T17:35:20.671Z,101578.84
2023-04-04T17:37:25.136Z,101577.22
2023-04-04T17:39:29.215Z,101570.38
2023-04-04T17:41:33.099Z,101569.50
2023-04-04T17:43:37.293Z,101559.84
2023-04-04T17:45:41.553Z,101559.16
2023-04-04T17:47:46.388Z,101559.44
2023-04-04T17:49:53.763Z,101563.09
2023-04-04T17:51:59.136Z,101566.88
2023-04-04T17:54:02.960Z,101573.19
2023-04-04T17:56:06.963Z,101567.91
2023-04-04T17:58:11.272Z,101566.34
2023-04-04T18:00:17.234Z,101566.34
2023-04-04T18:02:21.650Z,101561.22
2023-04-04T18:04:26.010Z,101559.69
2023-04-04T18:06:30.613Z,101554.53
2023-04-04T18:08:36.535Z,101561.03
2023-04-04T18:10:40.627Z,101555.03
2023-04-04T18:12:45.057Z,101548.03
2023-04-04T18:14:49.308Z,101547.25
2023-04-04T18:16:53.711Z,101546.47
2023-04-04T18:18:58.079Z,101541.31
2023-04-04T18:21:03.305Z,101542.38
2023-04-04T18:23:07.573Z,101543.41
2023-04-04T18:25:14.593Z,101536.53
2023-04-04T18:27:18.452Z,101534.81
2023-04-04T18:29:22.699Z,101539.44
2023-04-04T18:31:27.913Z,101534.28
2023-04-04T18:33:31.875Z,101530.84
2023-04-04T18:35:35.999Z,101524.88
2023-04-04T18:37:39.730Z,101525.06
2023-04-04T18:39:43.668Z,101522.56
2023-04-04T18:41:49.511Z,101525.19
2023-04-04T18:43:53.433Z,101518.22
2023-04-04T18:45:58.445Z,101513.13
2023-04-04T18:48:02.275Z,101507.00
2023-04-04T18:50:07.299Z,101510.50
2023-04-04T18:52:10.952Z,101512.34
2023-04-04T18:54:15.094Z,101493.88
2023-04-04T18:56:19.460Z,101500.88
2023-04-04T18:58:25.836Z,101494.72
2023-04-04T19:00:29.525Z,101492.34
2023-04-04T19:02:34.385Z,101492.34
2023-04-04T19:04:41.190Z,101500.28
2023-04-04T19:06:46.848Z,101491.38
2023-04-04T19:08:50.860Z,101498.41
2023-04-04T19:10:55.600Z,101493.88
2023-04-04T19:13:01.107Z,101492.16
2023-04-04T19:15:07.440Z,101487.72
2023-04-04T19:17:15.703Z,101489.44
2023-04-04T19:19:21.794Z,101488.50
2023-04-04T19:21:26.753Z,101486.69
2023-04-04T19:23:31.280Z,101488.34
2023-04-04T19:25:35.828Z,101489.19
2023-04-04T19:27:41.597Z,101483.06
2023-04-04T19:29:46.657Z,101483.91
2023-04-04T19:31:54.897Z,101486.69
2023-04-04T19:33:59.281Z,101495.47
2023-04-04T19:36:12.121Z,101489.19
2023-04-04T19:38:26.678Z,101491.84
2023-04-04T19:40:48.825Z,101490.16
2023-04-04T19:42:56.547Z,101493.56
2023-04-04T19:45:01.074Z,101491.84
2023-04-04T19:47:08.300Z,101490.16
2023-04-04T19:49:13.254Z,101491.84
2023-04-04T19:51:39.989Z,101483.97
2023-04-04T19:53:44.746Z,101485.78
2023-04-04T19:55:49.154Z,101494.63
2023-04-04T19:57:53.612Z,101491.22
2023-04-04T20:00:03.210Z,101484.44
2023-04-04T20:02:42.001Z,101477.59
2023-04-04T20:04:46.273Z,101485.72
2023-04-04T20:06:52.369Z,101491.09
2023-04-04T20:08:59.743Z,101485.88
2023-04-04T20:11:04.057Z,101485.09
2023-04-04T20:13:08.922Z,101496.66
2023-04-04T20:15:17.344Z,101490.56
2023-04-04T20:17:23.378Z,101489.84
2023-04-04T20:19:29.827Z,101484.91
2023-04-04T20:21:36.308Z,101497.34
2023-04-04T20:23:53.675Z,101499.25
2023-04-04T20:26:03.135Z,101490.66
2023-04-04T20:28:07.736Z,101488.94
2023-04-04T20:30:14.190Z,101496.06
2023-04-04T20:32:19.173Z,101499.53
2023-04-04T20:34:42.112Z,101490.66
2023-04-04T20:36:46.956Z,101479.16
2023-04-04T20:38:51.460Z,101487.09
2023-04-04T20:40:57.376Z,101492.38
2023-04-04T20:43:01.481Z,101490.50
2023-04-04T20:45:33.674Z,101469.31
2023-04-04T20:47:45.325Z,101469.31
2023-04-04T20:49:51.464Z,101460.44
2023-04-04T20:51:56.376Z,101465.75
2023-04-04T20:54:04.608Z,101463.09
2023-04-04T20:56:29.929Z,101459.69
2023-04-04T20:58:33.691Z,101462.41
2023-04-04T21:00:41.526Z,101458.88
2023-04-04T21:02:46.968Z,101448.28
2023-04-04T21:04:54.501Z,101444.72
2023-04-04T21:06:59.336Z,101443.00
2023-04-04T21:09:07.864Z,101435.97
2023-04-04T21:11:13.479Z,101421.91
2023-04-04T21:13:18.066Z,101414.13
2023-04-04T21:15:24.704Z,101416.84
2023-04-04T21:17:29.205Z,101425.72
2023-04-04T21:19:34.314Z,101427.44
2023-04-04T21:21:42.991Z,101428.38
2023-04-04T21:23:53.125Z,101432.97
2023-04-04T21:25:59.502Z,101432.88
2023-04-04T21:28:03.787Z,101432.88
2023-04-04T21:30:11.399Z,101427.59
2023-04-04T21:32:25.934Z,101420.44
2023-04-04T21:34:31.318Z,101426.66
2023-04-04T21:36:36.110Z,101424.00
2023-04-04T21:38:42.305Z,101422.16
2023-04-04T21:40:46.576Z,101426.50
2023-04-04T21:42:52.415Z,101422.91
2023-04-04T21:44:57.683Z,101431.94
2023-04-04T21:47:02.422Z,101418.88
2023-04-04T21:49:09.088Z,101417.16
2023-04-04T21:51:14.689Z,101419.97
2023-04-04T21:53:20.464Z,101410.16
2023-04-04T21:55:27.534Z,101412.03
2023-04-04T21:57:31.978Z,101410.31
2023-04-04T21:59:37.039Z,101393.59
2023-04-04T22:01:41.442Z,101408.47
2023-04-04T22:03:45.245Z,101393.34
2023-04-04T22:05:49.418Z,101400.25
2023-04-04T22:07:53.240Z,101392.41
2023-04-04T22:09:59.171Z,101380.09
2023-04-04T22:12:04.638Z,101388.13
2023-04-04T22:14:08.264Z,101389.97
2023-04-04T22:16:16.235Z,101375.16
2023-04-04T22:18:32.608Z,101381.44
2023-04-04T22:21:28.025Z,101370.16
2023-04-04T22:23:36.069Z,101368.53
2023-04-04T22:25:43.975Z,101362.38
2023-04-04T22:27:51.618Z,101358.88
2023-04-04T22:29:56.534Z,101356.22
2023-04-04T22:32:00.972Z,101349.16
2023-04-04T22:34:04.772Z,101341.97
2023-04-04T22:36:11.045Z,101334.81
2023-04-04T22:38:18.727Z,101333.88
2023-04-04T22:40:22.812Z,101344.38
2023-04-04T22:42:28.144Z,101337.19
2023-04-04T22:44:34.192Z,101337.03
2023-04-04T22:46:37.993Z,101334.31
2023-04-04T22:48:41.709Z,101331.50
2023-04-04T22:50:50.299Z,101339.28
2023-04-04T22:52:55.482Z,101344.41
2023-04-04T22:55:00.310Z,101336.34
2023-04-04T22:57:05.627Z,101330.03
2023-04-04T22:59:09.386Z,101336.13
2023-04-04T23:01:16.388Z,101335.19
2023-04-04T23:03:21.316Z,101329.72
2023-04-04T23:05:24.943Z,101327.00
2023-04-04T23:07:29.719Z,101326.06
2023-04-04T23:09:34.549Z,101312.81
2023-04-04T23:11:39.589Z,101315.38
2023-04-04T23:13:43.457Z,101306.50
2023-04-04T23:15:47.907Z,101299.31
2023-04-04T23:17:53.137Z,101306.31
2023-04-04T23:19:57.249Z,101298.28
2023-04-04T23:22:01.041Z,101293.81
2023-04-04T23:24:05.832Z,101297.34
2023-04-04T23:26:09.871Z,101293.75
2023-04-04T23:28:13.570Z,101290.06
2023-04-04T23:30:17.289Z,101293.59
2023-04-04T23:32:21.549Z,101281.19
2023-04-04T23:34:26.557Z,101285.63
2023-04-04T23:36:30.345Z,101282.06
2023-04-04T23:38:33.894Z,101274.03
2023-04-04T23:40:37.737Z,101275.69
2023-04-04T23:42:42.099Z,101282.81
2023-04-04T23:44:46.001Z,101284.53
2023-04-04T23:46:50.169Z,101279.22
2023-04-04T23:48:54.357Z,101285.28
2023-04-04T23:51:01.866Z,101295.03
2023-04-04T23:53:05.761Z,101295.03
2023-04-04T23:55:10.692Z,101296.75
2023-04-04T23:57:14.454Z,101311.78
2023-04-04T23:59:18.746Z,101301.97
